createdAt,value
2018-09-22T00:01:58.717Z,94.80
2018-09-22T00:04:26.917Z,95.10
2018-09-22T00:06:55.104Z,95.90
2018-09-22T00:09:23.307Z,95.30
2018-09-22T00:11:51.466Z,95.50
2018-09-22T00:14:19.674Z,95.60
2018-09-22T00:16:47.845Z,96.30
2018-09-22T00:19:16.043Z,96.30
2018-09-22T00:21:44.244Z,96.10
2018-09-22T00:24:12.406Z,96.50
2018-09-22T00:26:40.590Z,96.00
2018-09-22T00:29:08.790Z,96.70
2018-09-22T00:31:37.078Z,96.90
2018-09-22T00:34:05.384Z,97.40
2018-09-22T00:36:33.545Z,96.90
2018-09-22T00:39:01.738Z,97.10
2018-09-22T00:41:29.930Z,96.50
2018-09-22T00:43:58.112Z,97.20
2018-09-22T00:46:26.298Z,97.70
2018-09-22T00:48:54.474Z,97.60
2018-09-22T00:51:23.597Z,97.40
2018-09-22T00:53:51.789Z,97.60
2018-09-22T00:56:20.105Z,97.10
2018-09-22T00:58:48.257Z,96.90
2018-09-22T01:01:17.481Z,97.20
2018-09-22T01:03:45.678Z,97.20
2018-09-22T01:06:13.889Z,97.10
2018-09-22T01:08:42.033Z,97.60
2018-09-22T01:11:11.141Z,97.60
2018-09-22T01:13:39.315Z,97.80
2018-09-22T01:16:07.639Z,97.90
2018-09-22T01:18:35.802Z,98.00
2018-09-22T01:21:03.988Z,98.20
2018-09-22T01:23:32.165Z,97.50
2018-09-22T01:26:00.361Z,98.00
2018-09-22T01:28:28.542Z,97.20
2018-09-22T01:30:56.705Z,98.10
2018-09-22T01:33:24.786Z,97.80
2018-09-22T01:35:52.877Z,97.80
2018-09-22T01:38:20.965Z,97.80
2018-09-22T01:40:49.056Z,98.10
2018-09-22T01:43:17.229Z,98.40
2018-09-22T01:45:45.322Z,98.40
2018-09-22T01:48:13.402Z,98.80
2018-09-22T01:50:41.548Z,98.00
2018-09-22T01:53:09.682Z,98.30
2018-09-22T01:55:37.877Z,98.50
2018-09-22T01:58:06.042Z,97.50
2018-09-22T02:00:34.158Z,98.30
2018-09-22T02:03:02.315Z,98.30
2018-09-22T02:05:30.423Z,97.80
2018-09-22T02:07:58.585Z,98.30
2018-09-22T02:10:26.693Z,98.70
2018-09-22T02:12:54.787Z,98.40
2018-09-22T02:15:22.954Z,98.70
2018-09-22T02:17:51.122Z,98.70
2018-09-22T02:20:19.214Z,98.90
2018-09-22T02:22:47.302Z,99.20
2018-09-22T02:25:15.385Z,99.60
2018-09-22T02:27:43.474Z,99.70
2018-09-22T02:30:11.562Z,99.80
2018-09-22T02:32:39.737Z,99.80
2018-09-22T02:35:08.065Z,99.90
2018-09-22T02:37:36.201Z,99.90
2018-09-22T02:40:04.309Z,99.90
2018-09-22T02:42:32.490Z,99.90
2018-09-22T02:45:00.565Z,99.90
2018-09-22T02:47:28.678Z,99.90
2018-09-22T02:49:56.843Z,99.90
2018-09-22T02:52:24.949Z,99.90
2018-09-22T02:54:53.106Z,99.90
2018-09-22T02:57:21.195Z,99.90
2018-09-22T02:59:49.286Z,99.90
2018-09-22T03:02:17.366Z,99.90
2018-09-22T03:04:45.454Z,99.90
2018-09-22T03:07:13.534Z,99.90
2018-09-22T03:09:41.624Z,99.90
2018-09-22T03:12:09.699Z,99.90
2018-09-22T03:14:37.794Z,99.90
2018-09-22T03:17:05.910Z,99.90
2018-09-22T03:19:34.182Z,99.90
2018-09-22T03:22:02.250Z,99.90
2018-09-22T03:24:30.426Z,99.90
2018-09-22T03:26:58.662Z,99.90
2018-09-22T03:29:26.813Z,99.90
2018-09-22T03:31:54.922Z,99.90
2018-09-22T03:34:23.098Z,99.90
2018-09-22T03:36:51.330Z,99.90
2018-09-22T03:39:19.470Z,99.90
2018-09-22T03:41:47.724Z,99.90
2018-09-22T03:44:15.863Z,99.90
2018-09-22T03:46:44.038Z,99.90
2018-09-22T03:49:12.243Z,99.90
2018-09-22T03:51:40.421Z,99.90
2018-09-22T03:54:08.609Z,99.90
2018-09-22T03:56:36.789Z,99.90
2018-09-22T03:59:04.966Z,99.90
2018-09-22T04:01:33.179Z,99.90
2018-09-22T04:04:01.333Z,99.90
2018-09-22T04:06:29.529Z,99.90
2018-09-22T04:08:57.721Z,99.90
2018-09-22T04:11:25.910Z,99.90
2018-09-22T04:13:54.089Z,99.90
2018-09-22T04:16:22.285Z,99.90
2018-09-22T04:18:50.470Z,99.90
2018-09-22T04:21:19.798Z,99.90
2018-09-22T04:23:47.966Z,99.90
2018-09-22T04:26:16.154Z,99.90
2018-09-22T04:28:44.342Z,99.90
2018-09-22T04:31:12.543Z,99.90
2018-09-22T04:33:40.694Z,99.90
2018-09-22T04:36:08.794Z,99.90
2018-09-22T04:38:36.958Z,99.90
2018-09-22T04:41:05.442Z,99.90
2018-09-22T04:43:33.543Z,99.90
2018-09-22T04:46:01.634Z,99.90
2018-09-22T04:48:29.725Z,99.90
2018-09-22T04:50:57.817Z,99.90
2018-09-22T04:53:25.982Z,99.90
2018-09-22T04:55:54.085Z,99.90
2018-09-22T04:58:22.249Z,99.90
2018-09-22T05:00:50.478Z,99.90
2018-09-22T05:03:18.623Z,99.90
2018-09-22T05:05:46.718Z,99.90
2018-09-22T05:08:14.789Z,99.90
2018-09-22T05:10:42.882Z,99.90
2018-09-22T05:13:10.974Z,99.90
2018-09-22T05:15:39.149Z,99.90
2018-09-22T05:18:07.234Z,99.90
2018-09-22T05:20:35.321Z,99.90
2018-09-22T05:23:03.401Z,99.90
2018-09-22T05:25:31.490Z,99.90
2018-09-22T05:27:59.571Z,99.90
2018-09-22T05:30:27.806Z,99.90
2018-09-22T05:32:55.974Z,99.90
2018-09-22T05:35:24.207Z,99.90
2018-09-22T05:37:52.334Z,99.90
2018-09-22T05:40:20.540Z,99.90
2018-09-22T05:42:48.720Z,99.90
2018-09-22T05:45:16.935Z,99.90
2018-09-22T05:47:45.109Z,99.90
2018-09-22T05:50:13.518Z,99.90
2018-09-22T05:52:41.669Z,99.90
2018-09-22T05:55:09.873Z,99.90
2018-09-22T05:57:38.045Z,99.90
2018-09-22T06:00:06.621Z,99.90
2018-09-22T06:02:34.749Z,99.90
2018-09-22T06:05:02.937Z,99.90
2018-09-22T06:07:31.112Z,99.90
2018-09-22T06:09:59.357Z,99.90
2018-09-22T06:12:27.482Z,99.90
2018-09-22T06:14:55.679Z,99.90
2018-09-22T06:17:23.861Z,99.90
2018-09-22T06:19:52.033Z,99.90
2018-09-22T06:22:20.235Z,99.90
2018-09-22T06:24:48.602Z,99.90
2018-09-22T06:27:16.833Z,99.90
2018-09-22T06:29:45.026Z,99.90
2018-09-22T06:32:13.200Z,99.90
2018-09-22T06:34:41.406Z,99.90
2018-09-22T06:37:09.609Z,99.90
2018-09-22T06:39:37.750Z,99.90
2018-09-22T06:42:05.966Z,99.90
2018-09-22T06:44:34.129Z,99.90
2018-09-22T06:47:02.310Z,99.90
2018-09-22T06:49:30.520Z,99.90
2018-09-22T06:51:58.794Z,99.90
2018-09-22T06:54:26.964Z,99.90
2018-09-22T06:56:55.168Z,99.90
2018-09-22T06:59:23.355Z,99.90
2018-09-22T07:01:51.525Z,99.90
2018-09-22T07:04:19.726Z,99.90
2018-09-22T07:06:47.919Z,99.90
2018-09-22T07:09:16.111Z,99.90
2018-09-22T07:11:44.345Z,99.90
2018-09-22T07:14:12.518Z,99.90
2018-09-22T07:16:40.730Z,99.90
2018-09-22T07:19:08.854Z,99.90
2018-09-22T07:21:42.609Z,99.90
2018-09-22T07:24:10.777Z,99.90
2018-09-22T07:26:39.019Z,99.90
2018-09-22T07:29:07.159Z,99.90
2018-09-22T07:31:35.330Z,99.90
2018-09-22T07:34:03.454Z,99.90
2018-09-22T07:36:31.575Z,99.90
2018-09-22T07:38:59.723Z,99.90
2018-09-22T07:41:27.844Z,99.60
2018-09-22T07:43:56.019Z,99.50
2018-09-22T07:46:24.299Z,99.40
2018-09-22T07:48:52.387Z,99.40
2018-09-22T07:51:20.491Z,99.00
2018-09-22T07:53:48.664Z,99.00
2018-09-22T07:56:16.837Z,99.20
2018-09-22T07:58:44.914Z,99.20
2018-09-22T08:01:14.031Z,99.00
2018-09-22T08:03:42.123Z,98.90
2018-09-22T08:06:10.358Z,98.50
2018-09-22T08:08:38.482Z,97.90
2018-09-22T08:11:06.574Z,98.40
2018-09-22T08:13:34.670Z,98.60
2018-09-22T08:16:02.863Z,97.90
2018-09-22T08:18:31.045Z,98.10
2018-09-22T08:20:59.234Z,97.90
2018-09-22T08:23:27.451Z,97.50
2018-09-22T08:25:55.613Z,97.50
2018-09-22T08:28:24.030Z,97.50
2018-09-22T08:30:52.171Z,97.40
2018-09-22T08:33:20.294Z,97.40
2018-09-22T08:35:48.472Z,97.20
2018-09-22T08:38:16.658Z,97.40
2018-09-22T08:40:44.841Z,96.90
2018-09-22T08:43:12.926Z,96.70
2018-09-22T08:45:41.109Z,96.70
2018-09-22T08:48:09.318Z,96.50
2018-09-22T08:50:37.500Z,96.80
2018-09-22T08:53:05.682Z,96.50
2018-09-22T08:55:33.890Z,96.60
2018-09-22T08:58:02.046Z,97.50
2018-09-22T09:00:30.312Z,97.00
2018-09-22T09:02:58.426Z,96.30
2018-09-22T09:05:26.600Z,96.40
2018-09-22T09:07:54.807Z,96.00
2018-09-22T09:10:23.047Z,96.10
2018-09-22T09:12:51.170Z,95.70
2018-09-22T09:15:19.370Z,95.50
2018-09-22T09:17:47.574Z,95.20
2018-09-22T09:20:15.667Z,95.50
2018-09-22T09:22:43.830Z,95.40
2018-09-22T09:25:11.997Z,95.50
2018-09-22T09:27:40.561Z,94.80
2018-09-22T09:30:08.602Z,95.30
2018-09-22T09:32:36.771Z,95.20
2018-09-22T09:35:04.990Z,94.40
2018-09-22T09:37:33.147Z,95.10
2018-09-22T09:40:01.318Z,94.80
2018-09-22T09:42:29.539Z,94.10
2018-09-22T09:44:57.698Z,93.40
2018-09-22T09:47:25.878Z,93.50
2018-09-22T09:49:54.082Z,93.10
2018-09-22T09:52:22.173Z,92.90
2018-09-22T09:54:50.289Z,92.90
2018-09-22T09:57:18.425Z,92.70
2018-09-22T09:59:46.667Z,92.40
2018-09-22T10:02:14.809Z,92.20
2018-09-22T10:04:43.002Z,92.30
2018-09-22T10:07:11.182Z,91.60
2018-09-22T10:09:39.369Z,91.70
2018-09-22T10:12:07.588Z,91.30
2018-09-22T10:14:35.737Z,91.20
2018-09-22T10:17:03.922Z,91.70
2018-09-22T10:19:32.169Z,92.20
2018-09-22T10:22:00.297Z,92.70
2018-09-22T10:24:28.492Z,92.70
2018-09-22T10:26:56.669Z,92.20
2018-09-22T10:29:24.866Z,91.90
2018-09-22T10:31:53.046Z,92.00
2018-09-22T10:34:21.245Z,92.00
2018-09-22T10:36:49.420Z,92.00
2018-09-22T10:39:17.613Z,91.90
2018-09-22T10:41:45.785Z,91.20
2018-09-22T10:44:13.986Z,90.30
2018-09-22T10:46:42.173Z,90.10
2018-09-22T10:49:10.486Z,87.60
2018-09-22T10:51:39.934Z,85.60
2018-09-22T10:54:08.058Z,84.20
2018-09-22T10:56:36.356Z,85.90
2018-09-22T10:59:04.631Z,85.60
2018-09-22T11:01:32.826Z,83.50
2018-09-22T11:04:00.930Z,83.50
2018-09-22T11:06:29.261Z,83.50
2018-09-22T11:08:57.389Z,83.30
2018-09-22T11:11:25.616Z,83.70
2018-09-22T11:13:53.762Z,82.10
2018-09-22T11:16:21.946Z,81.50
2018-09-22T11:18:50.141Z,79.50
2018-09-22T11:21:18.313Z,78.90
2018-09-22T11:23:46.538Z,79.80
2018-09-22T11:26:14.698Z,80.70
2018-09-22T11:28:42.883Z,77.30
2018-09-22T11:31:11.169Z,76.30
2018-09-22T11:33:39.337Z,75.20
2018-09-22T11:36:07.590Z,74.90
2018-09-22T11:38:35.700Z,72.70
2018-09-22T11:41:03.805Z,72.10
2018-09-22T11:43:31.996Z,71.50
2018-09-22T11:46:00.414Z,67.10
2018-09-22T11:48:28.574Z,67.70
2018-09-22T11:50:56.790Z,67.60
2018-09-22T11:53:24.943Z,69.90
2018-09-22T11:55:53.126Z,70.30
2018-09-22T11:58:21.205Z,71.40
2018-09-22T12:00:49.406Z,70.30
2018-09-22T12:03:17.580Z,71.00
2018-09-22T12:05:45.665Z,71.10
2018-09-22T12:08:13.746Z,69.90
2018-09-22T12:10:41.834Z,69.20
2018-09-22T12:13:10.014Z,69.90
2018-09-22T12:15:38.098Z,72.30
2018-09-22T12:18:06.194Z,71.00
2018-09-22T12:20:34.624Z,71.50
2018-09-22T12:23:02.757Z,70.90
2018-09-22T12:25:30.983Z,71.10
2018-09-22T12:27:59.166Z,69.80
2018-09-22T12:30:27.359Z,70.80
2018-09-22T12:32:55.513Z,68.70
2018-09-22T12:35:23.648Z,68.50
2018-09-22T12:37:51.882Z,67.90
2018-09-22T12:40:19.978Z,67.80
2018-09-22T12:42:48.054Z,69.30
2018-09-22T12:45:16.144Z,68.70
2018-09-22T12:47:44.254Z,69.40
2018-09-22T12:50:12.414Z,69.40
2018-09-22T12:52:40.489Z,69.50
2018-09-22T12:55:08.585Z,70.60
2018-09-22T12:57:36.758Z,70.90
2018-09-22T13:00:05.241Z,68.70
2018-09-22T13:02:33.336Z,71.80
2018-09-22T13:05:01.455Z,69.20
2018-09-22T13:07:29.611Z,69.90
2018-09-22T13:09:57.707Z,69.70
2018-09-22T13:12:25.777Z,70.10
2018-09-22T13:14:53.873Z,70.80
2018-09-22T13:17:21.949Z,69.50
2018-09-22T13:19:50.042Z,72.30
2018-09-22T13:22:18.117Z,69.90
2018-09-22T13:24:46.200Z,70.20
2018-09-22T13:27:14.301Z,70.90
2018-09-22T13:29:42.506Z,70.00
2018-09-22T13:32:10.814Z,68.70
2018-09-22T13:34:38.950Z,69.10
2018-09-22T13:37:07.531Z,69.40
2018-09-22T13:39:35.632Z,69.00
2018-09-22T13:42:03.735Z,68.30
2018-09-22T13:44:31.805Z,68.50
2018-09-22T13:46:59.890Z,71.00
2018-09-22T13:49:27.971Z,70.20
2018-09-22T13:51:56.075Z,69.30
2018-09-22T13:54:24.238Z,70.30
2018-09-22T13:56:52.338Z,71.50
2018-09-22T13:59:20.410Z,70.40
2018-09-22T14:01:48.499Z,69.40
2018-09-22T14:04:16.579Z,68.10
2018-09-22T14:06:44.673Z,70.50
2018-09-22T14:09:13.090Z,68.70
2018-09-22T14:11:41.599Z,68.50
2018-09-22T14:14:09.747Z,68.60
2018-09-22T14:16:37.823Z,68.90
2018-09-22T14:19:05.897Z,71.40
2018-09-22T14:21:34.003Z,69.10
2018-09-22T14:24:02.097Z,68.40
2018-09-22T14:26:30.154Z,69.70
2018-09-22T14:28:58.299Z,72.30
2018-09-22T14:31:26.438Z,70.40
2018-09-22T14:33:54.531Z,69.30
2018-09-22T14:36:22.638Z,69.80
2018-09-22T14:38:50.934Z,70.00
2018-09-22T14:41:19.706Z,69.90
2018-09-22T14:43:48.130Z,69.10
2018-09-22T14:46:16.269Z,69.30
2018-09-22T14:48:44.394Z,70.90
2018-09-22T14:51:12.473Z,70.10
2018-09-22T14:53:40.655Z,71.70
2018-09-22T14:56:08.838Z,71.20
2018-09-22T14:58:37.008Z,71.20
2018-09-22T15:01:05.170Z,72.80
2018-09-22T15:03:33.278Z,72.30
2018-09-22T15:06:01.358Z,72.60
2018-09-22T15:08:29.446Z,71.50
2018-09-22T15:10:57.528Z,71.20
2018-09-22T15:13:25.630Z,71.10
2018-09-22T15:15:53.796Z,71.20
2018-09-22T15:18:21.882Z,71.20
2018-09-22T15:20:49.962Z,71.40
2018-09-22T15:23:18.063Z,73.40
2018-09-22T15:25:46.237Z,74.30
2018-09-22T15:28:14.338Z,75.90
2018-09-22T15:30:42.510Z,76.70
2018-09-22T15:33:10.612Z,76.10
2018-09-22T15:35:38.777Z,81.10
2018-09-22T15:38:06.873Z,77.90
2018-09-22T15:40:34.966Z,79.70
2018-09-22T15:43:03.186Z,82.40
2018-09-22T15:45:31.358Z,82.10
2018-09-22T15:47:59.424Z,84.00
2018-09-22T15:50:27.494Z,84.40
2018-09-22T15:52:55.582Z,86.00
2018-09-22T15:55:23.661Z,87.80
2018-09-22T15:57:51.749Z,90.00
2018-09-22T16:00:19.836Z,90.00
2018-09-22T16:02:47.913Z,91.10
2018-09-22T16:05:16.005Z,91.80
2018-09-22T16:07:44.090Z,92.80
2018-09-22T16:10:12.175Z,94.20
2018-09-22T16:12:40.260Z,94.80
2018-09-22T16:15:08.339Z,95.20
2018-09-22T16:17:36.434Z,95.50
2018-09-22T16:20:04.518Z,95.70
2018-09-22T16:22:32.690Z,96.60
2018-09-22T16:25:00.786Z,96.80
2018-09-22T16:27:28.886Z,97.90
2018-09-22T16:29:57.052Z,98.60
2018-09-22T16:32:25.253Z,99.20
2018-09-22T16:34:53.458Z,99.50
2018-09-22T16:37:21.629Z,99.30
2018-09-22T16:39:49.725Z,99.80
2018-09-22T16:42:17.905Z,99.90
2018-09-22T16:44:46.101Z,99.90
2018-09-22T16:47:14.298Z,99.90
2018-09-22T16:49:42.486Z,99.90
2018-09-22T16:52:10.658Z,99.90
2018-09-22T16:54:38.850Z,99.90
2018-09-22T16:57:07.031Z,99.90
2018-09-22T16:59:35.221Z,99.90
2018-09-22T17:02:03.313Z,99.90
2018-09-22T17:04:31.489Z,99.90
2018-09-22T17:06:59.665Z,99.90
2018-09-22T17:09:27.889Z,99.90
2018-09-22T17:11:56.063Z,99.90
2018-09-22T17:14:24.242Z,99.90
2018-09-22T17:16:52.427Z,99.60
2018-09-22T17:19:20.615Z,99.10
2018-09-22T17:21:48.807Z,99.90
2018-09-22T17:24:16.977Z,99.90
2018-09-22T17:26:45.167Z,99.90
2018-09-22T17:29:13.373Z,99.90
2018-09-22T17:31:42.562Z,99.90
2018-09-22T17:34:10.777Z,98.70
2018-09-22T17:36:38.870Z,98.50
2018-09-22T17:39:08.471Z,99.50
2018-09-22T17:41:37.661Z,98.60
2018-09-22T17:44:05.745Z,98.80
2018-09-22T17:46:33.954Z,99.50
2018-09-22T17:49:02.057Z,99.90
2018-09-22T17:51:31.246Z,99.90
2018-09-22T17:53:59.462Z,99.90
2018-09-22T17:56:27.619Z,99.90
2018-09-22T17:58:55.826Z,99.90
2018-09-22T18:01:23.989Z,99.90
2018-09-22T18:03:52.173Z,99.90
2018-09-22T18:06:20.474Z,99.90
2018-09-22T18:08:48.645Z,99.90
2018-09-22T18:11:16.842Z,99.90
2018-09-22T18:13:45.022Z,99.90
2018-09-22T18:16:13.433Z,99.90
2018-09-22T18:18:41.606Z,99.90
2018-09-22T18:21:09.798Z,99.90
2018-09-22T18:23:37.966Z,99.90
2018-09-22T18:26:06.190Z,99.90
2018-09-22T18:28:34.345Z,99.90
2018-09-22T18:31:02.572Z,99.90
2018-09-22T18:33:30.644Z,99.90
2018-09-22T18:35:58.791Z,99.90
2018-09-22T18:38:26.998Z,99.90
2018-09-22T18:40:55.182Z,99.90
2018-09-22T18:43:23.370Z,99.90
2018-09-22T18:45:51.675Z,99.90
2018-09-22T18:48:19.813Z,99.90
2018-09-22T18:50:47.916Z,99.90
2018-09-22T18:53:15.986Z,99.90
2018-09-22T18:55:44.094Z,99.90
2018-09-22T18:58:12.145Z,99.90
2018-09-22T19:00:40.257Z,99.90
2018-09-22T19:03:08.426Z,99.90
2018-09-22T19:05:36.654Z,99.90
2018-09-22T19:08:04.810Z,99.90
2018-09-22T19:10:33.007Z,99.90
2018-09-22T19:13:01.836Z,99.90
2018-09-22T19:15:38.918Z,99.90
2018-09-22T19:18:18.066Z,99.90
2018-09-22T19:21:04.118Z,99.90
2018-09-22T19:23:36.666Z,99.90
2018-09-22T19:26:10.001Z,99.90
2018-09-22T19:28:41.890Z,99.90
2018-09-22T19:31:14.448Z,99.90
2018-09-22T19:33:46.427Z,99.90
2018-09-22T19:36:20.032Z,99.90
2018-09-22T19:39:00.655Z,99.90
2018-09-22T19:41:34.266Z,99.90
2018-09-22T19:44:18.411Z,99.90
2018-09-22T19:46:52.421Z,99.90
2018-09-22T19:49:27.710Z,99.90
2018-09-22T19:52:04.042Z,99.90
2018-09-22T19:54:32.214Z,99.90
2018-09-22T19:57:00.402Z,99.90
2018-09-22T19:59:28.606Z,99.90
2018-09-22T20:01:57.000Z,99.90
2018-09-22T20:04:25.478Z,99.90
2018-09-22T20:06:53.647Z,99.90
2018-09-22T20:09:21.850Z,99.90
2018-09-22T20:11:50.038Z,99.90
2018-09-22T20:14:18.233Z,99.90
2018-09-22T20:16:46.430Z,99.90
2018-09-22T20:19:14.598Z,99.90
2018-09-22T20:21:42.782Z,99.90
2018-09-22T20:24:10.976Z,99.90
2018-09-22T20:26:39.154Z,99.90
2018-09-22T20:29:07.342Z,99.90
2018-09-22T20:31:35.502Z,99.90
2018-09-22T20:34:03.594Z,99.90
2018-09-22T20:36:31.670Z,99.90
2018-09-22T20:38:59.763Z,99.90
2018-09-22T20:41:27.977Z,99.90
2018-09-22T20:43:56.141Z,99.90
2018-09-22T20:46:24.452Z,99.90
2018-09-22T20:48:52.610Z,99.90
2018-09-22T20:51:20.698Z,99.90
2018-09-22T20:53:48.827Z,99.90
2018-09-22T20:56:16.991Z,99.90
2018-09-22T20:58:45.146Z,99.90
2018-09-22T21:01:13.229Z,99.90
2018-09-22T21:03:41.326Z,99.90
2018-09-22T21:06:09.528Z,99.90
2018-09-22T21:08:37.698Z,99.90
2018-09-22T21:11:05.876Z,99.90
2018-09-22T21:13:34.009Z,99.90
2018-09-22T21:16:02.168Z,99.90
2018-09-22T21:18:30.243Z,99.90
2018-09-22T21:20:58.358Z,99.90
2018-09-22T21:23:26.508Z,99.90
2018-09-22T21:25:54.602Z,99.90
2018-09-22T21:28:22.787Z,99.90
2018-09-22T21:30:50.963Z,99.90
2018-09-22T21:33:19.063Z,99.90
2018-09-22T21:35:47.245Z,99.90
2018-09-22T21:38:15.336Z,99.90
2018-09-22T21:40:43.461Z,99.90
2018-09-22T21:43:11.581Z,99.90
2018-09-22T21:45:39.674Z,99.90
2018-09-22T21:48:07.753Z,99.90
2018-09-22T21:50:35.859Z,99.90
2018-09-22T21:53:04.026Z,99.90
2018-09-22T21:55:32.118Z,99.90
2018-09-22T21:58:00.217Z,99.90
2018-09-22T22:00:28.383Z,99.90
2018-09-22T22:02:56.469Z,99.90
2018-09-22T22:05:24.561Z,99.90
2018-09-22T22:07:52.755Z,99.90
2018-09-22T22:10:20.929Z,99.90
2018-09-22T22:12:49.026Z,99.90
2018-09-22T22:15:17.205Z,99.90
2018-09-22T22:17:45.289Z,99.90
2018-09-22T22:20:13.418Z,99.90
2018-09-22T22:22:41.562Z,99.90
2018-09-22T22:25:09.755Z,99.90
2018-09-22T22:27:37.818Z,99.90
2018-09-22T22:30:07.854Z,99.90
2018-09-22T22:32:35.970Z,99.90
2018-09-22T22:35:04.360Z,99.90
2018-09-22T22:37:32.562Z,99.90
2018-09-22T22:40:00.742Z,99.90
2018-09-22T22:42:28.922Z,99.90
2018-09-22T22:44:57.106Z,99.90
2018-09-22T22:47:26.130Z,99.90
2018-09-22T22:49:54.301Z,99.90
2018-09-22T22:52:22.493Z,99.90
2018-09-22T22:54:50.687Z,99.90
2018-09-22T22:57:18.863Z,99.90
2018-09-22T22:59:47.067Z,99.90
2018-09-22T23:02:15.238Z,99.90
2018-09-22T23:04:43.430Z,99.90
2018-09-22T23:07:11.602Z,99.90
2018-09-22T23:09:39.802Z,99.90
2018-09-22T23:12:07.977Z,99.90
2018-09-22T23:14:36.175Z,99.90
2018-09-22T23:17:04.349Z,99.90
2018-09-22T23:19:32.659Z,99.90
2018-09-22T23:22:00.831Z,99.90
2018-09-22T23:24:29.023Z,99.90
2018-09-22T23:26:57.202Z,99.90
2018-09-22T23:29:25.458Z,99.90
2018-09-22T23:31:53.587Z,99.90
2018-09-22T23:34:21.779Z,99.90
2018-09-22T23:36:49.946Z,99.90
2018-09-22T23:39:18.146Z,99.90
2018-09-22T23:41:46.335Z,99.90
2018-09-22T23:44:14.515Z,99.90
2018-09-22T23:46:42.707Z,99.90
2018-09-22T23:49:10.878Z,99.90
2018-09-22T23:51:39.076Z,99.90
2018-09-22T23:54:07.261Z,99.90
2018-09-22T23:56:35.457Z,99.90
2018-09-22T23:59:03.633Z,99.90
